Terminal Aerodrome Forecast
Issued by NWS

Current Version | Previous Version | Text Only | Print | Product List | Glossary On
Versions: 1 2 3 4 5 6 7 8 9 10 11 12 13 14 15 16 17 18 19 20 21 22 23 24 25 26 27 28 29 30 31 32 33 34 35
000
FTPA31 PHFO 260500
TAFLNY
TAF
PHNY 260538Z 2606/2706 30005KT P6SM SCT020
      TEMPO 2606/2608 SCT015 BKN025
     FM262100 26011KT P6SM SCT020 BKN025
     FM270500 33005KT P6SM SCT020
      AMD NOT SKED=

USA.gov is the U.S. government's official web portal to all federal, state and local government web resources and services.